sensor_id;sensor_type;location;lat;lon;timestamp;P1;durP1;ratioP1;P2;durP2;ratioP2
47167;SDS011;32931;47.778;17.806;2022-12-18T00:01:05;66.07;;;37.67;;
47167;SDS011;32931;47.778;17.806;2022-12-18T00:03:39;65.38;;;36.92;;
47167;SDS011;32931;47.778;17.806;2022-12-18T00:06:05;69.70;;;37.88;;
47167;SDS011;32931;47.778;17.806;2022-12-18T00:08:32;74.97;;;38.58;;
47167;SDS011;32931;47.778;17.806;2022-12-18T00:11:08;65.60;;;38.08;;
47167;SDS011;32931;47.778;17.806;2022-12-18T00:13:41;65.05;;;38.53;;
47167;SDS011;32931;47.778;17.806;2022-12-18T00:16:09;67.80;;;38.63;;
47167;SDS011;32931;47.778;17.806;2022-12-18T00:18:37;64.10;;;37.90;;
47167;SDS011;32931;47.778;17.806;2022-12-18T00:21:04;68.57;;;38.53;;
47167;SDS011;32931;47.778;17.806;2022-12-18T00:23:32;69.68;;;38.33;;
47167;SDS011;32931;47.778;17.806;2022-12-18T00:26:00;64.72;;;37.35;;
47167;SDS011;32931;47.778;17.806;2022-12-18T00:28:30;64.78;;;37.20;;
47167;SDS011;32931;47.778;17.806;2022-12-18T00:31:03;65.32;;;38.05;;
47167;SDS011;32931;47.778;17.806;2022-12-18T00:33:35;70.68;;;40.08;;
47167;SDS011;32931;47.778;17.806;2022-12-18T00:36:05;68.55;;;39.47;;
47167;SDS011;32931;47.778;17.806;2022-12-18T00:38:34;71.85;;;41.70;;
47167;SDS011;32931;47.778;17.806;2022-12-18T00:41:00;71.68;;;39.65;;
47167;SDS011;32931;47.778;17.806;2022-12-18T00:43:27;69.25;;;40.40;;
47167;SDS011;32931;47.778;17.806;2022-12-18T00:45:53;73.25;;;39.97;;
47167;SDS011;32931;47.778;17.806;2022-12-18T00:48:20;69.82;;;40.75;;
47167;SDS011;32931;47.778;17.806;2022-12-18T00:50:50;65.47;;;39.03;;
47167;SDS011;32931;47.778;17.806;2022-12-18T00:53:16;69.70;;;40.72;;
47167;SDS011;32931;47.778;17.806;2022-12-18T00:55:43;72.03;;;40.22;;
47167;SDS011;32931;47.778;17.806;2022-12-18T00:58:10;68.38;;;39.97;;
47167;SDS011;32931;47.778;17.806;2022-12-18T01:00:38;68.78;;;41.03;;
47167;SDS011;32931;47.778;17.806;2022-12-18T01:03:04;69.97;;;40.28;;
47167;SDS011;32931;47.778;17.806;2022-12-18T01:05:31;74.63;;;42.97;;
47167;SDS011;32931;47.778;17.806;2022-12-18T01:07:57;70.47;;;40.60;;
47167;SDS011;32931;47.778;17.806;2022-12-18T01:10:24;71.40;;;41.00;;
47167;SDS011;32931;47.778;17.806;2022-12-18T01:12:51;74.63;;;42.67;;
47167;SDS011;32931;47.778;17.806;2022-12-18T01:15:17;73.22;;;41.40;;
47167;SDS011;32931;47.778;17.806;2022-12-18T01:17:44;75.72;;;42.65;;
47167;SDS011;32931;47.778;17.806;2022-12-18T01:20:11;74.75;;;41.88;;
47167;SDS011;32931;47.778;17.806;2022-12-18T01:22:37;72.53;;;42.78;;
47167;SDS011;32931;47.778;17.806;2022-12-18T01:25:04;73.68;;;40.78;;
47167;SDS011;32931;47.778;17.806;2022-12-18T01:27:31;75.70;;;43.60;;
47167;SDS011;32931;47.778;17.806;2022-12-18T01:29:58;74.68;;;41.65;;
47167;SDS011;32931;47.778;17.806;2022-12-18T01:32:25;70.93;;;41.28;;
47167;SDS011;32931;47.778;17.806;2022-12-18T01:34:51;77.57;;;44.28;;
47167;SDS011;32931;47.778;17.806;2022-12-18T01:37:17;72.63;;;43.42;;
47167;SDS011;32931;47.778;17.806;2022-12-18T01:39:43;75.50;;;43.60;;
47167;SDS011;32931;47.778;17.806;2022-12-18T01:42:13;76.20;;;43.88;;
47167;SDS011;32931;47.778;17.806;2022-12-18T01:47:21;76.63;;;42.63;;
47167;SDS011;32931;47.778;17.806;2022-12-18T01:49:50;75.57;;;42.88;;
47167;SDS011;32931;47.778;17.806;2022-12-18T01:52:17;76.07;;;43.00;;
47167;SDS011;32931;47.778;17.806;2022-12-18T01:54:46;73.50;;;41.78;;
47167;SDS011;32931;47.778;17.806;2022-12-18T01:57:14;77.55;;;44.85;;
47167;SDS011;32931;47.778;17.806;2022-12-18T01:59:41;77.75;;;43.50;;
47167;SDS011;32931;47.778;17.806;2022-12-18T02:02:10;74.80;;;43.42;;
47167;SDS011;32931;47.778;17.806;2022-12-18T02:04:37;81.75;;;45.13;;
47167;SDS011;32931;47.778;17.806;2022-12-18T02:07:10;80.88;;;44.47;;
47167;SDS011;32931;47.778;17.806;2022-12-18T02:10:00;73.88;;;42.88;;
47167;SDS011;32931;47.778;17.806;2022-12-18T02:12:31;79.20;;;43.25;;
47167;SDS011;32931;47.778;17.806;2022-12-18T02:15:30;78.78;;;45.38;;
47167;SDS011;32931;47.778;17.806;2022-12-18T02:18:24;72.45;;;42.70;;
47167;SDS011;32931;47.778;17.806;2022-12-18T02:21:04;73.35;;;44.13;;
47167;SDS011;32931;47.778;17.806;2022-12-18T02:26:41;80.43;;;43.60;;
47167;SDS011;32931;47.778;17.806;2022-12-18T02:29:16;81.82;;;45.78;;
47167;SDS011;32931;47.778;17.806;2022-12-18T02:31:51;81.50;;;45.35;;
47167;SDS011;32931;47.778;17.806;2022-12-18T02:34:22;83.38;;;46.15;;
47167;SDS011;32931;47.778;17.806;2022-12-18T02:36:52;86.93;;;46.90;;
47167;SDS011;32931;47.778;17.806;2022-12-18T02:39:20;85.95;;;47.88;;
47167;SDS011;32931;47.778;17.806;2022-12-18T02:41:49;85.80;;;48.20;;
47167;SDS011;32931;47.778;17.806;2022-12-18T02:44:16;94.75;;;53.67;;
47167;SDS011;32931;47.778;17.806;2022-12-18T02:46:43;92.95;;;50.42;;
47167;SDS011;32931;47.778;17.806;2022-12-18T02:57:29;92.90;;;49.78;;
47167;SDS011;32931;47.778;17.806;2022-12-18T03:05:10;89.75;;;48.80;;
47167;SDS011;32931;47.778;17.806;2022-12-18T03:07:39;93.20;;;51.10;;
47167;SDS011;32931;47.778;17.806;2022-12-18T03:10:25;94.40;;;50.63;;
47167;SDS011;32931;47.778;17.806;2022-12-18T03:13:02;91.25;;;50.45;;
47167;SDS011;32931;47.778;17.806;2022-12-18T03:15:52;98.78;;;51.05;;
47167;SDS011;32931;47.778;17.806;2022-12-18T03:18:22;92.75;;;49.85;;
47167;SDS011;32931;47.778;17.806;2022-12-18T03:20:52;89.57;;;51.90;;
47167;SDS011;32931;47.778;17.806;2022-12-18T03:23:23;93.30;;;50.75;;
47167;SDS011;32931;47.778;17.806;2022-12-18T03:25:54;92.53;;;50.50;;
47167;SDS011;32931;47.778;17.806;2022-12-18T03:28:24;91.38;;;49.88;;
47167;SDS011;32931;47.778;17.806;2022-12-18T03:30:55;94.18;;;51.40;;
47167;SDS011;32931;47.778;17.806;2022-12-18T03:35:54;96.88;;;52.50;;
47167;SDS011;32931;47.778;17.806;2022-12-18T03:38:21;99.53;;;52.80;;
47167;SDS011;32931;47.778;17.806;2022-12-18T03:40:52;96.95;;;53.22;;
47167;SDS011;32931;47.778;17.806;2022-12-18T03:46:02;100.50;;;54.67;;
47167;SDS011;32931;47.778;17.806;2022-12-18T03:48:38;100.00;;;52.83;;
47167;SDS011;32931;47.778;17.806;2022-12-18T03:51:27;100.72;;;55.78;;
47167;SDS011;32931;47.778;17.806;2022-12-18T03:54:04;95.07;;;52.30;;
47167;SDS011;32931;47.778;17.806;2022-12-18T03:56:36;105.47;;;56.10;;
47167;SDS011;32931;47.778;17.806;2022-12-18T03:59:05;105.07;;;58.63;;
47167;SDS011;32931;47.778;17.806;2022-12-18T04:01:35;105.93;;;56.33;;
47167;SDS011;32931;47.778;17.806;2022-12-18T04:04:05;105.20;;;57.10;;
47167;SDS011;32931;47.778;17.806;2022-12-18T04:06:33;107.00;;;56.42;;
47167;SDS011;32931;47.778;17.806;2022-12-18T04:09:01;107.55;;;58.45;;
47167;SDS011;32931;47.778;17.806;2022-12-18T04:11:27;103.45;;;56.40;;
47167;SDS011;32931;47.778;17.806;2022-12-18T04:13:57;106.70;;;56.60;;
47167;SDS011;32931;47.778;17.806;2022-12-18T04:16:24;106.85;;;55.83;;
47167;SDS011;32931;47.778;17.806;2022-12-18T04:18:52;102.68;;;54.53;;
47167;SDS011;32931;47.778;17.806;2022-12-18T04:21:18;103.85;;;55.20;;
47167;SDS011;32931;47.778;17.806;2022-12-18T04:23:45;101.38;;;55.75;;
47167;SDS011;32931;47.778;17.806;2022-12-18T04:26:11;110.25;;;58.58;;
47167;SDS011;32931;47.778;17.806;2022-12-18T04:28:37;110.40;;;56.60;;
47167;SDS011;32931;47.778;17.806;2022-12-18T04:31:03;102.13;;;56.00;;
47167;SDS011;32931;47.778;17.806;2022-12-18T04:33:30;109.05;;;57.95;;
47167;SDS011;32931;47.778;17.806;2022-12-18T04:35:56;108.13;;;56.85;;
47167;SDS011;32931;47.778;17.806;2022-12-18T04:38:23;103.93;;;55.20;;
47167;SDS011;32931;47.778;17.806;2022-12-18T04:40:49;105.50;;;55.95;;
47167;SDS011;32931;47.778;17.806;2022-12-18T04:43:15;111.22;;;57.88;;
47167;SDS011;32931;47.778;17.806;2022-12-18T04:45:41;116.28;;;59.70;;
47167;SDS011;32931;47.778;17.806;2022-12-18T04:48:08;108.57;;;58.97;;
47167;SDS011;32931;47.778;17.806;2022-12-18T04:50:34;107.95;;;57.58;;
47167;SDS011;32931;47.778;17.806;2022-12-18T04:53:00;109.85;;;58.90;;
47167;SDS011;32931;47.778;17.806;2022-12-18T04:55:27;110.97;;;58.25;;
47167;SDS011;32931;47.778;17.806;2022-12-18T04:57:53;111.60;;;58.05;;
47167;SDS011;32931;47.778;17.806;2022-12-18T05:00:19;111.25;;;58.92;;
47167;SDS011;32931;47.778;17.806;2022-12-18T05:02:46;108.07;;;58.65;;
47167;SDS011;32931;47.778;17.806;2022-12-18T05:05:12;110.80;;;58.33;;
47167;SDS011;32931;47.778;17.806;2022-12-18T05:07:38;112.22;;;60.30;;
47167;SDS011;32931;47.778;17.806;2022-12-18T05:10:06;108.82;;;57.00;;
47167;SDS011;32931;47.778;17.806;2022-12-18T05:12:33;111.25;;;58.22;;
47167;SDS011;32931;47.778;17.806;2022-12-18T05:14:59;113.95;;;58.10;;
47167;SDS011;32931;47.778;17.806;2022-12-18T05:17:25;118.00;;;60.72;;
47167;SDS011;32931;47.778;17.806;2022-12-18T05:19:51;113.00;;;61.65;;
47167;SDS011;32931;47.778;17.806;2022-12-18T05:22:17;144.70;;;78.63;;
47167;SDS011;32931;47.778;17.806;2022-12-18T05:24:43;151.32;;;78.47;;
47167;SDS011;32931;47.778;17.806;2022-12-18T05:27:09;119.60;;;62.35;;
47167;SDS011;32931;47.778;17.806;2022-12-18T05:29:35;120.35;;;61.38;;
47167;SDS011;32931;47.778;17.806;2022-12-18T05:32:01;113.18;;;61.08;;
47167;SDS011;32931;47.778;17.806;2022-12-18T05:34:28;113.78;;;60.00;;
47167;SDS011;32931;47.778;17.806;2022-12-18T05:36:54;122.38;;;61.38;;
47167;SDS011;32931;47.778;17.806;2022-12-18T05:39:20;118.82;;;59.17;;
47167;SDS011;32931;47.778;17.806;2022-12-18T05:41:46;127.70;;;62.47;;
47167;SDS011;32931;47.778;17.806;2022-12-18T05:44:12;120.95;;;63.38;;
47167;SDS011;32931;47.778;17.806;2022-12-18T05:46:38;113.80;;;58.30;;
47167;SDS011;32931;47.778;17.806;2022-12-18T05:49:04;112.90;;;58.60;;
47167;SDS011;32931;47.778;17.806;2022-12-18T05:51:31;107.28;;;56.40;;
47167;SDS011;32931;47.778;17.806;2022-12-18T05:53:57;105.93;;;55.60;;
47167;SDS011;32931;47.778;17.806;2022-12-18T05:56:23;108.75;;;56.22;;
47167;SDS011;32931;47.778;17.806;2022-12-18T05:58:52;110.57;;;58.75;;
47167;SDS011;32931;47.778;17.806;2022-12-18T06:01:20;114.22;;;60.10;;
47167;SDS011;32931;47.778;17.806;2022-12-18T06:03:49;122.75;;;65.57;;
47167;SDS011;32931;47.778;17.806;2022-12-18T06:06:19;118.03;;;59.97;;
47167;SDS011;32931;47.778;17.806;2022-12-18T06:08:47;110.07;;;57.88;;
47167;SDS011;32931;47.778;17.806;2022-12-18T06:11:16;116.18;;;61.17;;
47167;SDS011;32931;47.778;17.806;2022-12-18T06:13:45;126.95;;;68.63;;
47167;SDS011;32931;47.778;17.806;2022-12-18T06:16:12;121.38;;;66.00;;
47167;SDS011;32931;47.778;17.806;2022-12-18T06:18:38;113.30;;;60.05;;
47167;SDS011;32931;47.778;17.806;2022-12-18T06:21:04;106.57;;;56.22;;
47167;SDS011;32931;47.778;17.806;2022-12-18T06:23:30;118.20;;;59.05;;
47167;SDS011;32931;47.778;17.806;2022-12-18T06:25:57;110.93;;;56.75;;
47167;SDS011;32931;47.778;17.806;2022-12-18T06:28:23;118.93;;;58.92;;
47167;SDS011;32931;47.778;17.806;2022-12-18T06:30:49;113.38;;;59.20;;
47167;SDS011;32931;47.778;17.806;2022-12-18T06:33:15;112.78;;;58.05;;
47167;SDS011;32931;47.778;17.806;2022-12-18T06:35:42;114.35;;;59.67;;
47167;SDS011;32931;47.778;17.806;2022-12-18T06:38:08;122.10;;;60.58;;
47167;SDS011;32931;47.778;17.806;2022-12-18T06:40:35;112.32;;;57.42;;
47167;SDS011;32931;47.778;17.806;2022-12-18T06:43:04;115.03;;;56.70;;
47167;SDS011;32931;47.778;17.806;2022-12-18T06:45:30;112.20;;;56.70;;
47167;SDS011;32931;47.778;17.806;2022-12-18T06:47:56;113.68;;;56.20;;
47167;SDS011;32931;47.778;17.806;2022-12-18T06:50:23;108.85;;;56.28;;
47167;SDS011;32931;47.778;17.806;2022-12-18T06:52:49;108.53;;;55.58;;
47167;SDS011;32931;47.778;17.806;2022-12-18T06:55:15;114.75;;;56.65;;
47167;SDS011;32931;47.778;17.806;2022-12-18T06:57:41;106.95;;;53.83;;
47167;SDS011;32931;47.778;17.806;2022-12-18T07:00:07;115.57;;;57.13;;
47167;SDS011;32931;47.778;17.806;2022-12-18T07:02:34;113.38;;;56.63;;
47167;SDS011;32931;47.778;17.806;2022-12-18T07:05:01;115.60;;;57.00;;
47167;SDS011;32931;47.778;17.806;2022-12-18T07:07:27;106.00;;;54.90;;
47167;SDS011;32931;47.778;17.806;2022-12-18T07:09:53;118.82;;;56.20;;
47167;SDS011;32931;47.778;17.806;2022-12-18T07:12:19;113.95;;;56.20;;
47167;SDS011;32931;47.778;17.806;2022-12-18T07:14:45;118.25;;;58.53;;
47167;SDS011;32931;47.778;17.806;2022-12-18T07:17:11;115.78;;;55.75;;
47167;SDS011;32931;47.778;17.806;2022-12-18T07:19:38;119.68;;;58.92;;
47167;SDS011;32931;47.778;17.806;2022-12-18T07:22:04;119.22;;;58.70;;
47167;SDS011;32931;47.778;17.806;2022-12-18T07:24:32;112.32;;;56.10;;
47167;SDS011;32931;47.778;17.806;2022-12-18T07:26:59;110.82;;;56.92;;
47167;SDS011;32931;47.778;17.806;2022-12-18T07:29:25;113.55;;;54.13;;
47167;SDS011;32931;47.778;17.806;2022-12-18T07:31:51;113.82;;;55.33;;
47167;SDS011;32931;47.778;17.806;2022-12-18T07:34:17;117.18;;;55.83;;
47167;SDS011;32931;47.778;17.806;2022-12-18T07:36:43;110.80;;;54.72;;
47167;SDS011;32931;47.778;17.806;2022-12-18T07:39:13;110.95;;;55.90;;
47167;SDS011;32931;47.778;17.806;2022-12-18T07:41:39;110.72;;;53.90;;
47167;SDS011;32931;47.778;17.806;2022-12-18T07:44:11;105.68;;;54.38;;
47167;SDS011;32931;47.778;17.806;2022-12-18T07:46:38;112.53;;;54.50;;
47167;SDS011;32931;47.778;17.806;2022-12-18T07:49:04;114.22;;;55.63;;
47167;SDS011;32931;47.778;17.806;2022-12-18T07:51:30;110.28;;;54.83;;
47167;SDS011;32931;47.778;17.806;2022-12-18T07:53:56;114.90;;;54.22;;
47167;SDS011;32931;47.778;17.806;2022-12-18T07:56:23;106.55;;;51.78;;
47167;SDS011;32931;47.778;17.806;2022-12-18T07:58:49;112.53;;;53.05;;
47167;SDS011;32931;47.778;17.806;2022-12-18T08:01:15;111.18;;;53.10;;
47167;SDS011;32931;47.778;17.806;2022-12-18T08:03:41;108.97;;;51.55;;
47167;SDS011;32931;47.778;17.806;2022-12-18T08:06:08;109.93;;;52.47;;
47167;SDS011;32931;47.778;17.806;2022-12-18T08:08:35;114.18;;;55.35;;
47167;SDS011;32931;47.778;17.806;2022-12-18T08:11:01;107.25;;;52.90;;
47167;SDS011;32931;47.778;17.806;2022-12-18T08:13:28;110.97;;;51.28;;
47167;SDS011;32931;47.778;17.806;2022-12-18T08:15:58;108.80;;;50.80;;
47167;SDS011;32931;47.778;17.806;2022-12-18T08:18:25;107.47;;;52.45;;
47167;SDS011;32931;47.778;17.806;2022-12-18T08:20:52;110.68;;;52.17;;
47167;SDS011;32931;47.778;17.806;2022-12-18T08:23:18;106.45;;;51.00;;
47167;SDS011;32931;47.778;17.806;2022-12-18T08:25:44;110.07;;;51.25;;
47167;SDS011;32931;47.778;17.806;2022-12-18T08:28:10;116.55;;;51.67;;
47167;SDS011;32931;47.778;17.806;2022-12-18T08:30:37;109.72;;;49.10;;
47167;SDS011;32931;47.778;17.806;2022-12-18T08:33:03;103.90;;;49.17;;
47167;SDS011;32931;47.778;17.806;2022-12-18T08:35:29;104.60;;;49.40;;
47167;SDS011;32931;47.778;17.806;2022-12-18T08:37:55;98.63;;;47.92;;
47167;SDS011;32931;47.778;17.806;2022-12-18T08:40:21;107.28;;;49.15;;
47167;SDS011;32931;47.778;17.806;2022-12-18T08:42:47;107.97;;;48.92;;
47167;SDS011;32931;47.778;17.806;2022-12-18T08:45:32;108.38;;;48.55;;
47167;SDS011;32931;47.778;17.806;2022-12-18T08:47:59;105.47;;;50.10;;
47167;SDS011;32931;47.778;17.806;2022-12-18T08:50:26;102.90;;;49.25;;
47167;SDS011;32931;47.778;17.806;2022-12-18T08:52:52;108.25;;;49.65;;
47167;SDS011;32931;47.778;17.806;2022-12-18T08:55:18;96.30;;;44.95;;
47167;SDS011;32931;47.778;17.806;2022-12-18T08:57:47;103.47;;;46.10;;
47167;SDS011;32931;47.778;17.806;2022-12-18T09:00:14;103.10;;;47.83;;
47167;SDS011;32931;47.778;17.806;2022-12-18T09:02:41;105.40;;;47.72;;
47167;SDS011;32931;47.778;17.806;2022-12-18T09:05:07;105.32;;;45.88;;
47167;SDS011;32931;47.778;17.806;2022-12-18T09:07:34;107.70;;;48.47;;
47167;SDS011;32931;47.778;17.806;2022-12-18T09:10:00;104.43;;;47.63;;
47167;SDS011;32931;47.778;17.806;2022-12-18T09:12:26;113.55;;;49.08;;
47167;SDS011;32931;47.778;17.806;2022-12-18T09:14:52;102.63;;;45.58;;
47167;SDS011;32931;47.778;17.806;2022-12-18T09:17:18;105.15;;;47.58;;
47167;SDS011;32931;47.778;17.806;2022-12-18T09:19:45;100.68;;;45.50;;
47167;SDS011;32931;47.778;17.806;2022-12-18T09:22:11;104.90;;;46.50;;
47167;SDS011;32931;47.778;17.806;2022-12-18T09:24:37;99.90;;;46.47;;
47167;SDS011;32931;47.778;17.806;2022-12-18T09:27:03;110.72;;;47.72;;
47167;SDS011;32931;47.778;17.806;2022-12-18T09:29:29;101.40;;;46.90;;
47167;SDS011;32931;47.778;17.806;2022-12-18T09:31:56;103.10;;;47.85;;
47167;SDS011;32931;47.778;17.806;2022-12-18T09:34:22;102.93;;;48.58;;
47167;SDS011;32931;47.778;17.806;2022-12-18T09:36:48;102.47;;;46.88;;
47167;SDS011;32931;47.778;17.806;2022-12-18T09:39:15;103.15;;;49.00;;
47167;SDS011;32931;47.778;17.806;2022-12-18T09:47:01;102.97;;;46.35;;
47167;SDS011;32931;47.778;17.806;2022-12-18T09:49:45;105.47;;;47.63;;
47167;SDS011;32931;47.778;17.806;2022-12-18T09:57:44;98.88;;;46.60;;
47167;SDS011;32931;47.778;17.806;2022-12-18T10:02:44;100.38;;;47.28;;
47167;SDS011;32931;47.778;17.806;2022-12-18T10:13:07;94.28;;;46.53;;
47167;SDS011;32931;47.778;17.806;2022-12-18T10:20:51;100.20;;;46.42;;
47167;SDS011;32931;47.778;17.806;2022-12-18T10:28:35;100.20;;;45.90;;
47167;SDS011;32931;47.778;17.806;2022-12-18T10:31:07;100.75;;;47.05;;
47167;SDS011;32931;47.778;17.806;2022-12-18T10:33:44;93.85;;;44.47;;
47167;SDS011;32931;47.778;17.806;2022-12-18T10:36:10;103.82;;;47.88;;
47167;SDS011;32931;47.778;17.806;2022-12-18T10:38:37;97.90;;;46.58;;
47167;SDS011;32931;47.778;17.806;2022-12-18T10:41:05;96.38;;;45.92;;
47167;SDS011;32931;47.778;17.806;2022-12-18T10:44:10;97.65;;;46.28;;
47167;SDS011;32931;47.778;17.806;2022-12-18T10:46:36;91.63;;;44.58;;
47167;SDS011;32931;47.778;17.806;2022-12-18T10:49:03;101.50;;;47.75;;
47167;SDS011;32931;47.778;17.806;2022-12-18T10:51:31;97.65;;;46.28;;
47167;SDS011;32931;47.778;17.806;2022-12-18T10:54:12;91.40;;;44.72;;
47167;SDS011;32931;47.778;17.806;2022-12-18T10:57:14;91.68;;;44.28;;
47167;SDS011;32931;47.778;17.806;2022-12-18T11:00:03;97.55;;;46.05;;
47167;SDS011;32931;47.778;17.806;2022-12-18T11:02:47;97.60;;;45.83;;
47167;SDS011;32931;47.778;17.806;2022-12-18T11:05:27;94.38;;;46.85;;
47167;SDS011;32931;47.778;17.806;2022-12-18T11:07:58;94.03;;;45.88;;
47167;SDS011;32931;47.778;17.806;2022-12-18T11:10:28;94.32;;;46.28;;
47167;SDS011;32931;47.778;17.806;2022-12-18T11:13:10;101.45;;;46.10;;
47167;SDS011;32931;47.778;17.806;2022-12-18T11:15:42;89.80;;;44.70;;
47167;SDS011;32931;47.778;17.806;2022-12-18T11:18:30;95.07;;;45.95;;
47167;SDS011;32931;47.778;17.806;2022-12-18T11:20:59;94.10;;;46.58;;
47167;SDS011;32931;47.778;17.806;2022-12-18T11:23:36;93.63;;;46.15;;
47167;SDS011;32931;47.778;17.806;2022-12-18T11:26:09;91.22;;;45.38;;
47167;SDS011;32931;47.778;17.806;2022-12-18T11:28:37;88.30;;;44.10;;
47167;SDS011;32931;47.778;17.806;2022-12-18T11:31:25;90.90;;;43.75;;
47167;SDS011;32931;47.778;17.806;2022-12-18T11:33:58;92.35;;;46.22;;
47167;SDS011;32931;47.778;17.806;2022-12-18T11:36:46;91.55;;;44.58;;
47167;SDS011;32931;47.778;17.806;2022-12-18T11:42:10;93.57;;;45.83;;
47167;SDS011;32931;47.778;17.806;2022-12-18T11:44:46;88.57;;;41.97;;
47167;SDS011;32931;47.778;17.806;2022-12-18T11:49:55;93.88;;;46.22;;
47167;SDS011;32931;47.778;17.806;2022-12-18T11:52:37;94.20;;;46.80;;
47167;SDS011;32931;47.778;17.806;2022-12-18T12:00:51;92.88;;;46.47;;
47167;SDS011;32931;47.778;17.806;2022-12-18T12:03:24;93.47;;;46.22;;
47167;SDS011;32931;47.778;17.806;2022-12-18T12:06:22;95.82;;;47.75;;
47167;SDS011;32931;47.778;17.806;2022-12-18T12:11:48;95.10;;;46.97;;
47167;SDS011;32931;47.778;17.806;2022-12-18T12:14:47;93.10;;;46.03;;
47167;SDS011;32931;47.778;17.806;2022-12-18T12:17:24;91.35;;;47.05;;
47167;SDS011;32931;47.778;17.806;2022-12-18T12:20:34;96.20;;;46.38;;
47167;SDS011;32931;47.778;17.806;2022-12-18T12:26:25;91.43;;;45.53;;
47167;SDS011;32931;47.778;17.806;2022-12-18T12:28:57;89.28;;;42.05;;
47167;SDS011;32931;47.778;17.806;2022-12-18T12:39:30;97.03;;;50.05;;
47167;SDS011;32931;47.778;17.806;2022-12-18T12:42:03;96.18;;;46.25;;
47167;SDS011;32931;47.778;17.806;2022-12-18T12:44:58;96.07;;;44.25;;
47167;SDS011;32931;47.778;17.806;2022-12-18T12:47:38;99.07;;;45.03;;
47167;SDS011;32931;47.778;17.806;2022-12-18T12:50:13;88.50;;;42.92;;
47167;SDS011;32931;47.778;17.806;2022-12-18T12:52:43;101.32;;;48.28;;
47167;SDS011;32931;47.778;17.806;2022-12-18T12:55:16;97.88;;;44.83;;
47167;SDS011;32931;47.778;17.806;2022-12-18T12:57:46;91.10;;;46.03;;
47167;SDS011;32931;47.778;17.806;2022-12-18T13:00:21;99.10;;;46.15;;
47167;SDS011;32931;47.778;17.806;2022-12-18T13:02:54;94.18;;;43.50;;
47167;SDS011;32931;47.778;17.806;2022-12-18T13:08:23;94.10;;;43.85;;
47167;SDS011;32931;47.778;17.806;2022-12-18T13:10:52;88.47;;;42.92;;
47167;SDS011;32931;47.778;17.806;2022-12-18T13:16:18;95.28;;;42.20;;
47167;SDS011;32931;47.778;17.806;2022-12-18T13:18:50;88.47;;;43.95;;
47167;SDS011;32931;47.778;17.806;2022-12-18T13:21:32;98.47;;;45.90;;
47167;SDS011;32931;47.778;17.806;2022-12-18T13:24:16;99.88;;;47.67;;
47167;SDS011;32931;47.778;17.806;2022-12-18T13:26:53;118.68;;;52.03;;
47167;SDS011;32931;47.778;17.806;2022-12-18T13:32:18;97.50;;;45.50;;
47167;SDS011;32931;47.778;17.806;2022-12-18T13:34:48;99.63;;;44.30;;
47167;SDS011;32931;47.778;17.806;2022-12-18T13:40:24;92.88;;;43.80;;
47167;SDS011;32931;47.778;17.806;2022-12-18T13:46:17;99.50;;;45.72;;
47167;SDS011;32931;47.778;17.806;2022-12-18T13:48:48;99.05;;;46.45;;
47167;SDS011;32931;47.778;17.806;2022-12-18T13:53:58;90.53;;;42.83;;
47167;SDS011;32931;47.778;17.806;2022-12-18T13:56:46;94.07;;;41.63;;
47167;SDS011;32931;47.778;17.806;2022-12-18T13:59:14;96.50;;;43.22;;
47167;SDS011;32931;47.778;17.806;2022-12-18T14:01:49;94.88;;;45.47;;
47167;SDS011;32931;47.778;17.806;2022-12-18T14:04:27;96.47;;;46.92;;
47167;SDS011;32931;47.778;17.806;2022-12-18T14:07:01;92.50;;;44.33;;
47167;SDS011;32931;47.778;17.806;2022-12-18T14:09:37;94.80;;;42.42;;
47167;SDS011;32931;47.778;17.806;2022-12-18T14:12:16;102.35;;;45.17;;
47167;SDS011;32931;47.778;17.806;2022-12-18T14:17:52;101.88;;;45.58;;
47167;SDS011;32931;47.778;17.806;2022-12-18T14:20:24;100.97;;;43.55;;
47167;SDS011;32931;47.778;17.806;2022-12-18T14:22:51;95.40;;;43.28;;
47167;SDS011;32931;47.778;17.806;2022-12-18T14:28:31;102.25;;;44.85;;
47167;SDS011;32931;47.778;17.806;2022-12-18T14:30:33;108.80;;;52.45;;
47167;SDS011;32931;47.778;17.806;2022-12-18T14:33:03;113.53;;;53.35;;
47167;SDS011;32931;47.778;17.806;2022-12-18T14:35:31;114.05;;;53.25;;
47167;SDS011;32931;47.778;17.806;2022-12-18T14:40:47;106.80;;;49.15;;
47167;SDS011;32931;47.778;17.806;2022-12-18T14:43:18;126.32;;;60.75;;
47167;SDS011;32931;47.778;17.806;2022-12-18T14:45:44;160.23;;;76.68;;
47167;SDS011;32931;47.778;17.806;2022-12-18T14:53:44;112.25;;;51.67;;
47167;SDS011;32931;47.778;17.806;2022-12-18T14:56:21;111.60;;;50.00;;
47167;SDS011;32931;47.778;17.806;2022-12-18T15:01:58;164.73;;;74.43;;
47167;SDS011;32931;47.778;17.806;2022-12-18T15:04:31;206.68;;;96.95;;
47167;SDS011;32931;47.778;17.806;2022-12-18T15:12:34;152.43;;;71.47;;
47167;SDS011;32931;47.778;17.806;2022-12-18T15:15:03;197.32;;;87.53;;
47167;SDS011;32931;47.778;17.806;2022-12-18T15:17:30;158.55;;;72.10;;
47167;SDS011;32931;47.778;17.806;2022-12-18T15:20:00;164.95;;;75.18;;
47167;SDS011;32931;47.778;17.806;2022-12-18T15:22:30;138.77;;;67.05;;
47167;SDS011;32931;47.778;17.806;2022-12-18T15:24:59;122.15;;;55.10;;
47167;SDS011;32931;47.778;17.806;2022-12-18T15:27:36;129.43;;;59.38;;
47167;SDS011;32931;47.778;17.806;2022-12-18T15:32:33;125.72;;;54.58;;
47167;SDS011;32931;47.778;17.806;2022-12-18T15:35:02;122.93;;;56.63;;
47167;SDS011;32931;47.778;17.806;2022-12-18T15:37:35;113.03;;;51.85;;
47167;SDS011;32931;47.778;17.806;2022-12-18T15:40:01;113.65;;;52.70;;
47167;SDS011;32931;47.778;17.806;2022-12-18T15:42:28;144.68;;;61.88;;
47167;SDS011;32931;47.778;17.806;2022-12-18T15:45:13;192.25;;;101.28;;
47167;SDS011;32931;47.778;17.806;2022-12-18T15:47:40;170.35;;;85.22;;
47167;SDS011;32931;47.778;17.806;2022-12-18T15:50:09;128.23;;;63.35;;
47167;SDS011;32931;47.778;17.806;2022-12-18T15:52:39;159.73;;;78.57;;
47167;SDS011;32931;47.778;17.806;2022-12-18T15:55:10;132.50;;;62.05;;
47167;SDS011;32931;47.778;17.806;2022-12-18T15:58:03;133.23;;;64.07;;
47167;SDS011;32931;47.778;17.806;2022-12-18T16:00:31;121.00;;;59.05;;
47167;SDS011;32931;47.778;17.806;2022-12-18T16:02:59;117.10;;;52.25;;
47167;SDS011;32931;47.778;17.806;2022-12-18T16:05:26;104.65;;;48.58;;
47167;SDS011;32931;47.778;17.806;2022-12-18T16:07:54;106.68;;;51.83;;
47167;SDS011;32931;47.778;17.806;2022-12-18T16:10:20;110.85;;;48.90;;
47167;SDS011;32931;47.778;17.806;2022-12-18T16:12:46;106.50;;;49.00;;
47167;SDS011;32931;47.778;17.806;2022-12-18T16:15:13;101.97;;;47.75;;
47167;SDS011;32931;47.778;17.806;2022-12-18T16:17:44;114.22;;;52.40;;
47167;SDS011;32931;47.778;17.806;2022-12-18T16:20:14;117.95;;;53.90;;
47167;SDS011;32931;47.778;17.806;2022-12-18T16:22:42;120.45;;;54.50;;